createdAt,value
2022-11-17T00:00:42.972Z,5.43
2022-11-17T00:03:14.586Z,10.33
2022-11-17T00:05:46.283Z,8.60
2022-11-17T00:08:14.127Z,6.93
2022-11-17T00:10:41.905Z,8.63
2022-11-17T00:13:28.815Z,13.20
2022-11-17T00:15:56.626Z,8.73
2022-11-17T00:18:42.189Z,8.23
2022-11-17T00:21:21.450Z,7.70
2022-11-17T00:23:50.560Z,8.93
2022-11-17T00:26:22.834Z,8.00
2022-11-17T00:28:54.425Z,6.60
2022-11-17T00:31:40.941Z,9.57
2022-11-17T00:34:14.787Z,6.00
2022-11-17T00:36:47.578Z,8.73
2022-11-17T00:39:16.807Z,7.30
2022-11-17T00:41:44.738Z,6.70
2022-11-17T00:44:13.097Z,5.17
2022-11-17T00:46:43.279Z,4.90
2022-11-17T00:49:14.560Z,6.60
2022-11-17T00:51:42.937Z,3.70
2022-11-17T00:54:13.662Z,5.60
2022-11-17T00:56:41.930Z,5.53
2022-11-17T00:59:10.116Z,6.37
2022-11-17T01:01:39.602Z,5.10
2022-11-17T01:04:08.688Z,5.37
2022-11-17T01:06:38.741Z,8.40
2022-11-17T01:09:08.360Z,7.50
2022-11-17T01:11:37.482Z,7.10
2022-11-17T01:14:05.623Z,5.73
2022-11-17T01:16:34.459Z,6.33
2022-11-17T01:19:04.256Z,4.70
2022-11-17T01:21:32.881Z,8.40
2022-11-17T01:24:03.068Z,4.43
2022-11-17T01:26:33.085Z,4.77
2022-11-17T01:29:02.920Z,3.67
2022-11-17T01:31:33.068Z,4.10
2022-11-17T01:34:01.591Z,4.90
2022-11-17T01:36:51.458Z,5.73
2022-11-17T01:39:19.428Z,5.20
2022-11-17T01:41:47.668Z,4.27
2022-11-17T01:44:58.248Z,4.23
2022-11-17T01:47:34.390Z,3.87
2022-11-17T01:50:07.746Z,3.70
2022-11-17T01:52:37.230Z,5.97
2022-11-17T01:55:09.695Z,4.03
2022-11-17T01:57:43.347Z,5.60
2022-11-17T02:00:15.845Z,4.93
2022-11-17T02:02:47.616Z,3.93
2022-11-17T02:05:34.120Z,4.10
2022-11-17T02:08:05.860Z,6.57
2022-11-17T02:10:35.904Z,4.37
2022-11-17T02:13:04.100Z,7.27
2022-11-17T02:15:32.497Z,4.23
2022-11-17T02:18:02.415Z,4.80
2022-11-17T02:20:47.523Z,6.03
2022-11-17T02:23:58.685Z,5.87
2022-11-17T02:26:58.939Z,7.33
2022-11-17T02:29:36.386Z,6.13
2022-11-17T02:32:08.590Z,7.07
2022-11-17T02:34:45.621Z,6.30
2022-11-17T02:37:22.680Z,5.87
2022-11-17T02:40:00.283Z,4.83
2022-11-17T02:42:54.011Z,6.60
2022-11-17T02:45:29.970Z,5.07
2022-11-17T02:48:00.763Z,4.80
2022-11-17T02:50:30.776Z,5.27
2022-11-17T02:52:58.574Z,5.97
2022-11-17T02:55:27.612Z,6.20
2022-11-17T02:57:55.394Z,6.50
2022-11-17T03:00:24.712Z,6.20
2022-11-17T03:03:21.013Z,4.07
2022-11-17T03:05:57.747Z,5.97
2022-11-17T03:08:33.265Z,5.23
2022-11-17T03:11:03.682Z,6.03
2022-11-17T03:13:43.168Z,4.17
2022-11-17T03:16:23.248Z,4.13
2022-11-17T03:19:04.453Z,4.43
2022-11-17T03:21:37.893Z,2.60
2022-11-17T03:24:12.509Z,2.27
2022-11-17T03:26:44.741Z,4.07
2022-11-17T03:29:16.015Z,4.20
2022-11-17T03:31:48.574Z,2.60
2022-11-17T03:34:19.549Z,2.07
2022-11-17T03:36:51.211Z,4.43
2022-11-17T03:39:24.652Z,3.70
2022-11-17T03:41:57.620Z,3.07
2022-11-17T03:44:30.257Z,3.33
2022-11-17T03:47:03.326Z,3.80
2022-11-17T03:49:39.015Z,3.37
2022-11-17T03:52:07.027Z,4.27
2022-11-17T03:54:35.597Z,4.37
2022-11-17T03:57:08.567Z,3.03
2022-11-17T03:59:43.798Z,3.87
2022-11-17T04:02:19.319Z,3.47
2022-11-17T04:05:05.091Z,4.87
2022-11-17T04:07:33.041Z,6.10
2022-11-17T04:10:00.987Z,3.77
2022-11-17T04:12:46.627Z,3.10
2022-11-17T04:15:31.939Z,2.93
2022-11-17T04:18:01.241Z,3.40
2022-11-17T04:20:36.010Z,2.40
2022-11-17T04:23:11.316Z,2.30
2022-11-17T04:25:59.017Z,4.47
2022-11-17T04:28:40.053Z,3.50
2022-11-17T04:31:11.140Z,2.63
2022-11-17T04:33:41.931Z,2.47
2022-11-17T04:36:14.112Z,2.30
2022-11-17T04:38:43.446Z,2.33
2022-11-17T04:41:32.555Z,2.30
2022-11-17T04:44:01.681Z,2.13
2022-11-17T04:46:31.342Z,3.40
2022-11-17T04:49:01.358Z,3.03
2022-11-17T04:51:30.786Z,2.40
2022-11-17T04:53:59.449Z,3.10
2022-11-17T04:56:28.809Z,3.23
2022-11-17T04:58:58.994Z,2.20
2022-11-17T05:01:28.122Z,3.30
2022-11-17T05:03:57.926Z,2.40
2022-11-17T05:06:29.728Z,3.07
2022-11-17T05:08:57.963Z,2.53
2022-11-17T05:11:45.105Z,2.70
2022-11-17T05:14:14.858Z,1.80
2022-11-17T05:17:04.523Z,2.30
2022-11-17T05:19:38.106Z,3.93
2022-11-17T05:22:28.450Z,2.83
2022-11-17T05:24:55.874Z,3.00
2022-11-17T05:27:24.896Z,2.30
2022-11-17T05:29:52.838Z,3.37
2022-11-17T05:32:21.030Z,3.30
2022-11-17T05:34:48.964Z,2.70
2022-11-17T05:37:18.146Z,2.03
2022-11-17T05:39:45.929Z,2.63
2022-11-17T05:42:13.716Z,2.63
2022-11-17T05:44:41.502Z,2.20
2022-11-17T05:47:09.323Z,2.00
2022-11-17T05:49:37.090Z,2.60
2022-11-17T05:52:04.997Z,3.07
2022-11-17T05:54:34.178Z,2.67
2022-11-17T05:57:06.406Z,3.30
2022-11-17T05:59:37.841Z,4.17
2022-11-17T06:02:10.318Z,3.73
2022-11-17T06:04:38.999Z,4.20
2022-11-17T06:07:07.026Z,2.83
2022-11-17T06:09:40.683Z,3.60
2022-11-17T06:12:08.820Z,2.87
2022-11-17T06:14:37.668Z,3.00
2022-11-17T06:17:10.582Z,3.17
2022-11-17T06:19:42.516Z,3.37
2022-11-17T06:22:13.057Z,3.00
2022-11-17T06:24:44.041Z,2.73
2022-11-17T06:27:12.986Z,2.90
2022-11-17T06:29:44.601Z,2.37
2022-11-17T06:32:13.925Z,2.80
2022-11-17T06:34:42.313Z,3.67
2022-11-17T06:37:11.268Z,2.87
2022-11-17T06:39:39.118Z,3.03
2022-11-17T06:42:08.335Z,3.43
2022-11-17T06:44:36.155Z,4.03
2022-11-17T06:47:03.976Z,1.90
2022-11-17T06:49:31.791Z,4.37
2022-11-17T06:51:59.726Z,2.03
2022-11-17T06:54:27.577Z,2.87
2022-11-17T06:56:56.105Z,1.70
2022-11-17T06:59:27.590Z,2.20
2022-11-17T07:01:55.477Z,4.37
2022-11-17T07:04:23.350Z,3.97
2022-11-17T07:06:51.363Z,3.07
2022-11-17T07:09:20.083Z,3.13
2022-11-17T07:11:48.110Z,2.10
2022-11-17T07:14:15.977Z,4.13
2022-11-17T07:16:45.400Z,2.77
2022-11-17T07:19:13.661Z,3.87
2022-11-17T07:21:41.643Z,3.40
2022-11-17T07:24:09.831Z,2.70
2022-11-17T07:26:37.692Z,2.10
2022-11-17T07:29:08.208Z,2.97
2022-11-17T07:31:36.774Z,2.50
2022-11-17T07:34:06.018Z,3.57
2022-11-17T07:36:34.606Z,1.63
2022-11-17T07:39:03.269Z,1.93
2022-11-17T07:41:32.073Z,1.87
2022-11-17T07:44:00.312Z,2.33
2022-11-17T07:46:28.203Z,2.93
2022-11-17T07:48:56.249Z,1.80
2022-11-17T07:51:26.321Z,3.17
2022-11-17T07:53:54.252Z,1.80
2022-11-17T07:56:22.212Z,1.30
2022-11-17T07:58:50.179Z,2.50
2022-11-17T08:01:18.226Z,3.33
2022-11-17T08:03:46.426Z,4.00
2022-11-17T08:06:14.599Z,1.60
2022-11-17T08:08:43.804Z,2.00
2022-11-17T08:11:13.635Z,2.17
2022-11-17T08:13:42.275Z,1.00
2022-11-17T08:16:12.354Z,2.00
2022-11-17T08:18:40.831Z,0.90
2022-11-17T08:21:10.689Z,2.30
2022-11-17T08:23:39.113Z,1.93
2022-11-17T08:26:09.897Z,1.60
2022-11-17T08:28:38.537Z,2.30
2022-11-17T08:31:08.175Z,1.40
2022-11-17T08:33:36.271Z,1.53
2022-11-17T08:36:07.040Z,2.47
2022-11-17T08:38:36.269Z,1.97
2022-11-17T08:41:06.502Z,1.37
2022-11-17T08:43:36.519Z,1.63
2022-11-17T08:46:05.210Z,3.20
2022-11-17T08:48:34.768Z,1.43
2022-11-17T08:51:07.102Z,1.80
2022-11-17T08:53:36.331Z,6.90
2022-11-17T08:56:08.390Z,1.40
2022-11-17T08:58:44.569Z,3.60
2022-11-17T09:01:16.281Z,2.90
2022-11-17T09:03:45.727Z,0.90
2022-11-17T09:06:15.285Z,1.73
2022-11-17T09:08:46.132Z,1.60
2022-11-17T09:11:16.653Z,0.77
2022-11-17T09:13:47.409Z,1.63
2022-11-17T09:16:16.847Z,2.47
2022-11-17T09:18:45.367Z,1.37
2022-11-17T09:21:15.730Z,2.13
2022-11-17T09:23:44.097Z,0.60
2022-11-17T09:26:14.257Z,1.90
2022-11-17T09:28:42.182Z,0.97
2022-11-17T09:31:14.001Z,0.63
2022-11-17T09:33:42.451Z,0.93
2022-11-17T09:36:11.007Z,1.10
2022-11-17T09:38:42.951Z,0.83
2022-11-17T09:41:21.298Z,2.13
2022-11-17T09:43:55.428Z,2.30
2022-11-17T09:46:28.790Z,1.93
2022-11-17T09:49:04.661Z,0.80
2022-11-17T09:51:36.246Z,1.33
2022-11-17T09:54:11.401Z,2.63
2022-11-17T09:56:41.126Z,2.97
2022-11-17T09:59:15.310Z,2.57
2022-11-17T10:01:44.762Z,2.53
2022-11-17T10:04:16.901Z,1.30
2022-11-17T10:06:51.409Z,2.10
2022-11-17T10:09:28.647Z,3.33
2022-11-17T10:12:08.726Z,2.83
2022-11-17T10:14:41.173Z,1.77
2022-11-17T10:17:12.812Z,3.07
2022-11-17T10:19:41.144Z,3.93
2022-11-17T10:22:25.988Z,3.70
2022-11-17T10:24:57.776Z,2.67
2022-11-17T10:27:28.839Z,2.07
2022-11-17T10:30:01.204Z,2.93
2022-11-17T10:32:32.860Z,1.07
2022-11-17T10:35:15.257Z,2.63
2022-11-17T10:37:46.555Z,2.40
2022-11-17T10:40:23.801Z,3.23
2022-11-17T10:43:01.241Z,2.53
2022-11-17T10:45:29.897Z,2.13
2022-11-17T10:48:25.467Z,4.23
2022-11-17T10:50:55.795Z,2.90
2022-11-17T10:53:42.830Z,3.23
2022-11-17T10:56:16.848Z,6.23
2022-11-17T10:59:01.098Z,4.13
2022-11-17T11:01:33.580Z,3.13
2022-11-17T11:04:03.798Z,1.90
2022-11-17T11:06:33.645Z,3.23
2022-11-17T11:09:05.568Z,2.67
2022-11-17T11:11:44.475Z,2.47
2022-11-17T11:14:19.368Z,2.47
2022-11-17T11:16:48.981Z,2.20
2022-11-17T11:19:20.522Z,2.63
2022-11-17T11:22:13.779Z,2.97
2022-11-17T11:24:55.966Z,3.10
2022-11-17T11:27:33.603Z,2.27
2022-11-17T11:30:04.460Z,1.57
2022-11-17T11:32:50.616Z,1.47
2022-11-17T11:35:38.187Z,2.37
2022-11-17T11:38:17.413Z,3.17
2022-11-17T11:40:56.176Z,3.80
2022-11-17T11:43:36.988Z,2.73
2022-11-17T11:46:15.827Z,2.53
2022-11-17T11:48:43.813Z,4.07
2022-11-17T11:51:18.537Z,1.80
2022-11-17T11:53:53.662Z,1.30
2022-11-17T11:56:26.898Z,2.23
2022-11-17T11:59:00.039Z,2.90
2022-11-17T12:01:29.859Z,4.30
2022-11-17T12:04:15.410Z,1.87
2022-11-17T12:06:54.417Z,2.28
2022-11-17T12:09:54.359Z,1.52
2022-11-17T12:12:28.923Z,1.88
2022-11-17T12:15:26.036Z,1.88
2022-11-17T12:18:00.002Z,1.75
2022-11-17T12:20:50.749Z,3.38
2022-11-17T12:23:30.036Z,1.92
2022-11-17T12:26:00.157Z,2.38
2022-11-17T12:28:34.219Z,2.88
2022-11-17T12:31:09.460Z,3.92
2022-11-17T12:34:14.389Z,2.85
2022-11-17T12:36:42.449Z,3.08
2022-11-17T12:39:49.972Z,3.42
2022-11-17T12:42:17.783Z,1.52
2022-11-17T12:45:07.932Z,3.33
2022-11-17T12:47:37.622Z,2.55
2022-11-17T12:50:53.687Z,4.18
2022-11-17T12:53:43.187Z,3.50
2022-11-17T12:56:38.364Z,2.58
2022-11-17T12:59:31.348Z,4.15
2022-11-17T13:02:11.484Z,2.50
2022-11-17T13:04:49.314Z,4.57
2022-11-17T13:07:21.173Z,3.95
2022-11-17T13:09:51.881Z,3.08
2022-11-17T13:12:25.561Z,2.80
2022-11-17T13:14:55.817Z,4.00
2022-11-17T13:17:28.901Z,3.20
2022-11-17T13:20:04.913Z,3.88
2022-11-17T13:22:35.367Z,4.65
2022-11-17T13:25:21.491Z,6.32
2022-11-17T13:27:56.023Z,4.30
2022-11-17T13:30:28.172Z,6.40
2022-11-17T13:32:57.209Z,6.18
2022-11-17T13:35:27.839Z,3.63
2022-11-17T13:38:03.928Z,6.43
2022-11-17T13:40:32.889Z,4.03
2022-11-17T13:43:03.049Z,8.02
2022-11-17T13:45:31.005Z,1.92
2022-11-17T13:47:59.516Z,3.28
2022-11-17T13:50:37.072Z,4.63
2022-11-17T13:53:24.979Z,4.20
2022-11-17T13:55:53.729Z,4.70
2022-11-17T13:58:28.588Z,5.05
2022-11-17T14:01:00.040Z,4.93
2022-11-17T14:03:39.591Z,2.53
2022-11-17T14:06:10.501Z,4.80
2022-11-17T14:08:40.715Z,5.22
2022-11-17T14:11:16.521Z,6.22
2022-11-17T14:13:47.870Z,4.50
2022-11-17T14:16:26.230Z,5.65
2022-11-17T14:18:59.831Z,5.70
2022-11-17T14:21:29.246Z,5.07
2022-11-17T14:24:12.663Z,4.40
2022-11-17T14:26:45.408Z,5.50
2022-11-17T14:29:14.885Z,4.50
2022-11-17T14:31:43.218Z,4.88
2022-11-17T14:34:11.094Z,3.55
2022-11-17T14:36:40.333Z,7.75
2022-11-17T14:39:15.460Z,5.97
2022-11-17T14:41:43.912Z,3.55
2022-11-17T14:44:15.719Z,5.95
2022-11-17T14:46:44.105Z,5.90
2022-11-17T14:49:12.187Z,6.93
2022-11-17T14:51:40.303Z,5.63
2022-11-17T14:54:08.118Z,4.93
2022-11-17T14:56:35.895Z,2.60
2022-11-17T14:59:03.690Z,5.27
2022-11-17T15:01:38.494Z,3.97
2022-11-17T15:04:34.641Z,3.20
2022-11-17T15:06:55.308Z,6.55
2022-11-17T15:09:23.206Z,2.83
2022-11-17T15:11:52.094Z,4.77
2022-11-17T15:14:20.291Z,3.03
2022-11-17T15:16:49.627Z,5.70
2022-11-17T15:19:17.734Z,4.20
2022-11-17T15:21:45.621Z,3.93
2022-11-17T15:24:13.969Z,3.50
2022-11-17T15:26:45.030Z,4.90
2022-11-17T15:29:15.280Z,4.73
2022-11-17T15:31:44.305Z,4.53
2022-11-17T15:34:19.860Z,5.20
2022-11-17T15:36:48.484Z,4.77
2022-11-17T15:39:16.702Z,6.83
2022-11-17T15:41:45.108Z,4.07
2022-11-17T15:44:13.642Z,9.90
2022-11-17T15:46:46.950Z,9.33
2022-11-17T15:49:17.035Z,8.23
2022-11-17T15:51:47.913Z,9.00
2022-11-17T15:54:20.365Z,9.43
2022-11-17T15:56:50.872Z,12.83
2022-11-17T15:59:19.221Z,9.80
2022-11-17T16:01:47.642Z,10.90
2022-11-17T16:04:17.262Z,8.20
2022-11-17T16:06:47.627Z,5.57
2022-11-17T16:09:18.076Z,6.27
2022-11-17T16:11:46.390Z,7.80
2022-11-17T16:14:15.087Z,6.60
2022-11-17T16:16:43.715Z,4.65
2022-11-17T16:19:11.635Z,4.80
2022-11-17T16:21:40.887Z,4.40
2022-11-17T16:24:12.346Z,8.80
2022-11-17T16:26:40.263Z,9.27
2022-11-17T16:29:08.903Z,7.23
2022-11-17T16:31:38.027Z,4.37
2022-11-17T16:34:12.836Z,10.77
2022-11-17T16:36:43.261Z,10.03
2022-11-17T16:39:16.576Z,12.93
2022-11-17T16:41:46.364Z,5.10
2022-11-17T16:44:16.696Z,5.65
2022-11-17T16:46:46.265Z,7.72
2022-11-17T16:49:16.492Z,6.53
2022-11-17T16:51:49.410Z,9.75
2022-11-17T16:54:18.163Z,7.20
2022-11-17T16:56:46.112Z,7.77
2022-11-17T16:59:14.855Z,5.47
2022-11-17T17:01:43.035Z,7.57
2022-11-17T17:04:12.820Z,4.25
2022-11-17T17:06:41.556Z,11.77
2022-11-17T17:09:12.697Z,7.93
2022-11-17T17:11:41.016Z,6.70
2022-11-17T17:14:12.919Z,6.53
2022-11-17T17:16:42.098Z,9.30
2022-11-17T17:19:11.668Z,10.68
2022-11-17T17:21:40.820Z,11.20
2022-11-17T17:24:10.783Z,7.00
2022-11-17T17:26:39.297Z,9.55
2022-11-17T17:29:08.414Z,11.10
2022-11-17T17:31:38.273Z,9.27
2022-11-17T17:34:07.349Z,7.40
2022-11-17T17:36:37.097Z,7.80
2022-11-17T17:39:06.098Z,7.53
2022-11-17T17:41:40.128Z,7.45
2022-11-17T17:44:09.633Z,9.18
2022-11-17T17:46:39.398Z,12.87
2022-11-17T17:49:07.898Z,12.35
2022-11-17T17:51:39.919Z,9.13
2022-11-17T17:54:08.182Z,10.73
2022-11-17T17:56:37.424Z,8.55
2022-11-17T17:59:05.276Z,9.15
2022-11-17T18:01:37.460Z,7.88
2022-11-17T18:04:05.852Z,7.15
2022-11-17T18:06:37.811Z,8.37
2022-11-17T18:09:06.337Z,6.95
2022-11-17T18:11:35.528Z,6.93
2022-11-17T18:14:05.545Z,7.93
2022-11-17T18:16:38.497Z,8.43
2022-11-17T18:19:08.953Z,10.47
2022-11-17T18:21:37.077Z,11.70
2022-11-17T18:24:05.586Z,15.45
2022-11-17T18:26:35.391Z,8.80
2022-11-17T18:29:06.871Z,9.55
2022-11-17T18:31:36.922Z,10.03
2022-11-17T18:34:06.614Z,10.10
2022-11-17T18:36:34.969Z,8.02
2022-11-17T18:39:03.616Z,5.63
2022-11-17T18:41:33.902Z,6.20
2022-11-17T18:44:02.430Z,5.25
2022-11-17T18:46:33.585Z,6.80
2022-11-17T18:49:02.098Z,7.03
2022-11-17T18:51:31.408Z,6.75
2022-11-17T18:54:01.075Z,6.40
2022-11-17T18:56:33.219Z,8.38
2022-11-17T18:59:01.029Z,10.57
2022-11-17T19:01:31.757Z,8.75
2022-11-17T19:04:01.314Z,8.73
2022-11-17T19:06:29.853Z,5.43
2022-11-17T19:08:59.884Z,5.77
2022-11-17T19:11:30.723Z,6.77
2022-11-17T19:14:02.194Z,5.63
2022-11-17T19:16:32.515Z,5.72
2022-11-17T19:19:00.634Z,7.53
2022-11-17T19:21:30.065Z,3.35
2022-11-17T19:23:59.770Z,3.57
2022-11-17T19:26:28.937Z,4.78
2022-11-17T19:28:57.500Z,4.55
2022-11-17T19:31:25.937Z,3.83
2022-11-17T19:33:56.429Z,6.45
2022-11-17T19:36:26.492Z,4.47
2022-11-17T19:38:55.872Z,4.37
2022-11-17T19:41:25.490Z,7.45
2022-11-17T19:43:54.344Z,8.33
2022-11-17T19:46:23.617Z,6.65
2022-11-17T19:48:52.090Z,7.00
2022-11-17T19:51:23.629Z,5.88
2022-11-17T19:53:52.983Z,8.03
2022-11-17T19:56:21.544Z,5.78
2022-11-17T19:58:50.410Z,4.68
2022-11-17T20:01:20.943Z,3.50
2022-11-17T20:03:50.468Z,5.80
2022-11-17T20:06:22.278Z,5.00
2022-11-17T20:08:50.629Z,6.50
2022-11-17T20:11:29.194Z,3.33
2022-11-17T20:13:57.501Z,3.63
2022-11-17T20:16:26.799Z,4.30
2022-11-17T20:18:56.278Z,3.97
2022-11-17T20:21:26.689Z,4.13
2022-11-17T20:23:55.195Z,2.30
2022-11-17T20:26:24.960Z,2.97
2022-11-17T20:28:53.659Z,2.87
2022-11-17T20:31:24.301Z,2.80
2022-11-17T20:33:56.364Z,2.50
2022-11-17T20:36:25.884Z,2.33
2022-11-17T20:38:57.754Z,2.43
2022-11-17T20:41:26.173Z,1.27
2022-11-17T20:43:56.099Z,1.70
2022-11-17T20:46:24.544Z,1.40
2022-11-17T20:48:53.035Z,1.35
2022-11-17T20:51:23.235Z,1.43
2022-11-17T20:53:52.657Z,1.92
2022-11-17T20:56:21.182Z,1.42
2022-11-17T20:58:49.253Z,2.03
2022-11-17T21:01:18.406Z,2.30
2022-11-17T21:03:46.824Z,2.30
2022-11-17T21:06:16.979Z,0.90
2022-11-17T21:08:46.521Z,0.90
2022-11-17T21:11:37.716Z,0.50
2022-11-17T21:14:06.874Z,1.00
2022-11-17T21:16:36.699Z,1.20
2022-11-17T21:19:04.957Z,1.05
2022-11-17T21:21:32.831Z,0.90
2022-11-17T21:24:00.735Z,1.00
2022-11-17T21:26:30.211Z,1.60
2022-11-17T21:29:01.870Z,1.23
2022-11-17T21:31:34.687Z,1.23
2022-11-17T21:34:06.210Z,2.70
2022-11-17T21:36:35.824Z,0.95
2022-11-17T21:39:04.292Z,0.90
2022-11-17T21:41:36.148Z,1.10
2022-11-17T21:44:04.768Z,1.10
2022-11-17T21:46:34.478Z,1.10
2022-11-17T21:49:02.358Z,1.30
2022-11-17T21:51:35.075Z,1.30
2022-11-17T21:54:04.898Z,0.77
2022-11-17T21:56:34.122Z,1.95
2022-11-17T21:59:05.845Z,1.85
2022-11-17T22:01:34.771Z,1.40
2022-11-17T22:04:02.951Z,1.60
2022-11-17T22:06:31.014Z,1.92
2022-11-17T22:09:00.177Z,1.45
2022-11-17T22:11:39.092Z,1.40
2022-11-17T22:14:14.244Z,0.60
2022-11-17T22:16:44.052Z,0.93
2022-11-17T22:19:13.651Z,0.85
2022-11-17T22:21:42.188Z,1.45
2022-11-17T22:24:11.922Z,1.00
2022-11-17T22:26:41.263Z,1.30
2022-11-17T22:29:13.146Z,2.25
2022-11-17T22:31:41.178Z,2.03
2022-11-17T22:34:09.103Z,1.17
2022-11-17T22:36:37.849Z,0.70
2022-11-17T22:39:06.162Z,1.23
2022-11-17T22:41:35.384Z,1.00
2022-11-17T22:44:03.557Z,1.50
2022-11-17T22:46:33.014Z,0.70
2022-11-17T22:49:00.877Z,1.10
2022-11-17T22:51:46.106Z,0.85
2022-11-17T22:54:14.037Z,1.48
2022-11-17T22:56:41.920Z,1.23
2022-11-17T22:59:09.802Z,1.52
2022-11-17T23:01:39.193Z,0.95
2022-11-17T23:04:07.317Z,1.58
2022-11-17T23:06:35.103Z,0.90
2022-11-17T23:09:02.983Z,0.90
2022-11-17T23:11:36.986Z,1.80
2022-11-17T23:14:06.461Z,0.80
2022-11-17T23:16:34.525Z,2.10
2022-11-17T23:19:04.079Z,1.63
2022-11-17T23:21:31.961Z,0.90
2022-11-17T23:23:59.856Z,0.90
2022-11-17T23:26:27.659Z,0.80
2022-11-17T23:28:55.479Z,1.20
2022-11-17T23:31:23.319Z,0.90
2022-11-17T23:33:51.140Z,1.60
2022-11-17T23:36:22.235Z,0.70
2022-11-17T23:38:51.502Z,1.05
2022-11-17T23:41:20.853Z,1.58
2022-11-17T23:43:50.966Z,2.50
2022-11-17T23:46:21.209Z,1.53
2022-11-17T23:48:49.449Z,1.70
2022-11-17T23:51:18.856Z,1.55
2022-11-17T23:53:49.383Z,1.30
2022-11-17T23:56:18.324Z,0.73
2022-11-17T23:58:46.214Z,0.60
